Time,TemperatureF,DewpointF,PressureIn,WindDirection,WindDirectionDegrees,WindSpeedMPH,WindSpeedGustMPH,Humidity,HourlyPrecipIn,Conditions,Clouds,dailyrainin,SolarRadiationWatts/m^2,SoftwareType,DateUTC
2013-08-20 00:01:00,65.9,61.9,29.98,SE,130,0.0,0.0,87,0.00,,CLR,0.00,0.00,VWS V14.01,2013-08-20 04:01:00,
2013-08-20 00:06:00,65.8,61.8,29.98,SE,130,0.0,0.0,87,0.00,,CLR,0.00,0.00,VWS V14.01,2013-08-20 04:06:00,
2013-08-20 00:11:00,65.7,61.7,29.98,SE,130,0.0,0.0,87,0.00,,CLR,0.00,0.00,VWS V14.01,2013-08-20 04:11:00,
2013-08-20 00:16:00,65.6,61.6,29.98,SE,130,0.0,0.0,87,0.00,,CLR,0.00,0.00,VWS V14.01,2013-08-20 04:16:00,
2013-08-20 00:21:00,65.4,61.4,29.98,SE,130,0.0,0.0,87,0.00,,CLR,0.00,0.00,VWS V14.01,2013-08-20 04:21:00,
2013-08-20 00:26:00,65.3,61.7,29.99,SE,130,0.0,0.0,88,0.00,,CLR,0.00,0.00,VWS V14.01,2013-08-20 04:26:00,
2013-08-20 00:31:00,65.2,61.6,29.98,SE,130,0.0,0.0,88,0.00,,CLR,0.00,0.00,VWS V14.01,2013-08-20 04:31:00,
2013-08-20 00:37:00,65.0,61.4,29.98,SE,130,0.0,0.0,88,0.00,,CLR,0.00,0.00,VWS V14.01,2013-08-20 04:37:00,
2013-08-20 00:42:00,64.8,61.2,29.99,SE,130,0.0,0.0,88,0.00,,CLR,0.00,0.00,VWS V14.01,2013-08-20 04:42:00,
2013-08-20 00:47:00,64.7,61.4,29.99,SE,130,0.0,0.0,89,0.00,,CLR,0.00,0.00,VWS V14.01,2013-08-20 04:47:00,
2013-08-20 00:52:00,64.5,61.2,29.99,SE,130,0.0,0.0,89,0.00,,CLR,0.00,0.00,VWS V14.01,2013-08-20 04:52:00,
2013-08-20 00:57:00,64.4,61.1,29.98,SE,130,0.0,0.0,89,0.00,,CLR,0.00,0.00,VWS V14.01,2013-08-20 04:57:00,
2013-08-20 01:02:00,64.3,61.0,29.99,SE,130,0.0,0.0,89,0.00,,CLR,0.00,0.00,VWS V14.01,2013-08-20 05:02:00,
2013-08-20 01:07:00,64.1,60.8,29.99,SE,130,0.0,0.0,89,0.00,,CLR,0.00,0.00,VWS V14.01,2013-08-20 05:07:00,
2013-08-20 01:12:00,64.0,60.7,29.99,SE,130,0.0,0.0,89,0.00,,CLR,0.00,0.00,VWS V14.01,2013-08-20 05:12:00,
2013-08-20 01:17:00,63.9,60.6,29.99,SE,130,0.0,0.0,89,0.00,,CLR,0.00,0.00,VWS V14.01,2013-08-20 05:17:00,
2013-08-20 01:22:00,63.7,60.4,29.99,SE,130,0.0,0.0,89,0.00,,CLR,0.00,0.00,VWS V14.01,2013-08-20 05:22:00,
2013-08-20 01:27:00,63.6,60.3,29.99,SE,130,0.0,0.0,89,0.00,,CLR,0.00,0.00,VWS V14.01,2013-08-20 05:27:00,
2013-08-20 01:32:00,63.5,60.2,29.99,SE,130,0.0,0.0,89,0.00,,CLR,0.00,0.00,VWS V14.01,2013-08-20 05:32:00,
2013-08-20 01:37:00,63.3,60.0,29.99,SE,130,0.0,0.0,89,0.00,,CLR,0.00,0.00,VWS V14.01,2013-08-20 05:37:00,
2013-08-20 01:42:00,63.2,59.9,29.98,SE,130,0.0,0.0,89,0.00,,CLR,0.00,0.00,VWS V14.01,2013-08-20 05:42:00,
2013-08-20 01:47:00,63.1,59.8,29.99,SE,130,0.0,0.0,89,0.00,,CLR,0.00,0.00,VWS V14.01,2013-08-20 05:47:00,
2013-08-20 01:52:00,63.0,59.7,29.99,SE,130,0.0,0.0,89,0.00,,CLR,0.00,0.00,VWS V14.01,2013-08-20 05:52:00,
2013-08-20 01:57:00,62.9,59.6,29.99,SE,130,0.0,0.0,89,0.00,,CLR,0.00,0.00,VWS V14.01,2013-08-20 05:57:00,
2013-08-20 02:02:00,62.9,59.6,29.99,SE,130,0.0,0.0,89,0.00,,CLR,0.00,0.00,VWS V14.01,2013-08-20 06:02:00,
2013-08-20 02:07:00,62.8,59.5,29.99,SE,130,0.0,0.0,89,0.00,,CLR,0.00,0.00,VWS V14.01,2013-08-20 06:07:00,
2013-08-20 02:12:00,62.7,59.4,29.99,SE,130,0.0,0.0,89,0.00,,CLR,0.00,0.00,VWS V14.01,2013-08-20 06:12:00,
2013-08-20 02:17:00,62.6,59.6,29.99,SE,130,0.0,0.0,90,0.00,,CLR,0.00,0.00,VWS V14.01,2013-08-20 06:17:00,
2013-08-20 02:22:00,62.5,59.5,29.99,SE,130,0.0,0.0,90,0.00,,CLR,0.00,0.00,VWS V14.01,2013-08-20 06:22:00,
2013-08-20 02:27:00,62.5,59.5,29.99,SE,130,0.0,0.0,90,0.00,,CLR,0.00,0.00,VWS V14.01,2013-08-20 06:27:00,
2013-08-20 02:32:00,62.5,59.5,29.99,SE,130,0.0,0.0,90,0.00,,CLR,0.00,0.00,VWS V14.01,2013-08-20 06:32:00,
2013-08-20 02:37:00,62.5,59.5,29.99,SE,130,0.0,0.0,90,0.00,,CLR,0.00,0.00,VWS V14.01,2013-08-20 06:37:00,
2013-08-20 02:42:00,62.4,59.4,29.99,SE,130,0.0,0.0,90,0.00,,CLR,0.00,0.00,VWS V14.01,2013-08-20 06:42:00,
2013-08-20 02:47:00,62.3,59.3,29.99,SE,130,0.0,0.0,90,0.00,,CLR,0.00,0.00,VWS V14.01,2013-08-20 06:47:00,
2013-08-20 02:52:00,62.3,59.6,29.99,SE,130,0.0,0.0,91,0.00,,CLR,0.00,0.00,VWS V14.01,2013-08-20 06:52:00,
2013-08-20 02:57:00,62.2,59.5,29.99,SE,130,0.0,0.0,91,0.00,,CLR,0.00,0.00,VWS V14.01,2013-08-20 06:57:00,
2013-08-20 03:02:00,62.1,59.5,30.00,SE,130,0.0,0.0,91,0.00,,CLR,0.00,0.00,VWS V14.01,2013-08-20 07:02:00,
2013-08-20 03:07:00,62.0,59.3,30.00,SE,130,0.0,0.0,91,0.00,,CLR,0.00,0.00,VWS V14.01,2013-08-20 07:07:00,
2013-08-20 03:12:00,62.0,59.3,30.00,SE,130,0.0,0.0,91,0.00,,CLR,0.00,0.00,VWS V14.01,2013-08-20 07:12:00,
2013-08-20 03:17:00,62.0,59.3,29.99,SE,130,0.0,0.0,91,0.00,,CLR,0.00,0.00,VWS V14.01,2013-08-20 07:17:00,
2013-08-20 03:22:00,61.9,59.2,29.99,SE,130,0.0,0.0,91,0.00,,CLR,0.00,0.00,VWS V14.01,2013-08-20 07:22:00,
2013-08-20 03:27:00,61.8,59.2,29.99,SE,130,0.0,0.0,91,0.00,,CLR,0.00,0.00,VWS V14.01,2013-08-20 07:27:00,
2013-08-20 03:32:00,61.8,59.2,29.99,SE,130,0.0,0.0,91,0.00,,CLR,0.00,0.00,VWS V14.01,2013-08-20 07:32:00,
2013-08-20 03:37:00,61.7,59.0,30.00,SE,130,0.0,0.0,91,0.00,,CLR,0.00,0.00,VWS V14.01,2013-08-20 07:37:00,
2013-08-20 03:42:00,61.7,59.4,30.00,SE,130,0.0,0.0,92,0.00,,CLR,0.00,0.00,VWS V14.01,2013-08-20 07:42:00,
2013-08-20 03:47:00,61.8,59.5,30.00,SE,130,0.0,0.0,92,0.00,,CLR,0.00,0.00,VWS V14.01,2013-08-20 07:47:00,
2013-08-20 03:52:00,61.8,59.5,30.00,SE,130,0.0,0.0,92,0.00,,CLR,0.00,0.00,VWS V14.01,2013-08-20 07:52:00,
2013-08-20 03:57:00,61.8,59.5,30.00,SE,130,0.0,0.0,92,0.00,,CLR,0.00,0.00,VWS V14.01,2013-08-20 07:57:00,
2013-08-20 04:02:00,61.8,59.5,30.00,SE,130,0.0,0.0,92,0.00,,CLR,0.00,0.00,VWS V14.01,2013-08-20 08:02:00,
2013-08-20 04:07:00,61.7,59.4,30.00,SE,130,0.0,0.0,92,0.00,,CLR,0.00,0.00,VWS V14.01,2013-08-20 08:07:00,
2013-08-20 04:12:00,61.8,59.5,30.00,SE,130,0.0,0.0,92,0.00,,CLR,0.00,0.00,VWS V14.01,2013-08-20 08:12:00,
2013-08-20 04:17:00,61.7,59.4,30.00,SE,130,0.0,0.0,92,0.00,,CLR,0.00,0.00,VWS V14.01,2013-08-20 08:17:00,
2013-08-20 04:22:00,61.7,59.4,30.00,SE,130,0.0,0.0,92,0.00,,CLR,0.00,0.00,VWS V14.01,2013-08-20 08:22:00,
2013-08-20 04:27:00,61.6,59.3,30.00,SE,130,0.0,0.0,92,0.00,,CLR,0.00,0.00,VWS V14.01,2013-08-20 08:27:00,
2013-08-20 04:32:00,61.5,59.2,30.00,SE,130,0.0,0.0,92,0.00,,CLR,0.00,0.00,VWS V14.01,2013-08-20 08:32:00,
2013-08-20 04:37:00,61.4,59.1,30.01,SE,130,0.0,0.0,92,0.00,,CLR,0.00,0.00,VWS V14.01,2013-08-20 08:37:00,
2013-08-20 04:43:00,61.3,59.0,30.01,SE,130,0.0,0.0,92,0.00,,CLR,0.00,0.00,VWS V14.01,2013-08-20 08:43:00,
2013-08-20 04:48:00,61.2,59.2,30.01,SE,130,0.0,0.0,93,0.00,,CLR,0.00,0.00,VWS V14.01,2013-08-20 08:48:00,
2013-08-20 04:53:00,61.1,59.1,30.01,SE,130,0.0,0.0,93,0.00,,CLR,0.00,0.00,VWS V14.01,2013-08-20 08:53:00,
2013-08-20 04:58:00,61.1,59.1,30.01,SE,130,0.0,0.0,93,0.00,,CLR,0.00,0.00,VWS V14.01,2013-08-20 08:58:00,
2013-08-20 05:03:00,61.0,59.0,30.02,SE,130,0.0,0.0,93,0.00,,CLR,0.00,0.00,VWS V14.01,2013-08-20 09:03:00,
2013-08-20 05:08:00,60.9,58.9,30.02,SE,130,0.0,0.0,93,0.00,,CLR,0.00,0.00,VWS V14.01,2013-08-20 09:08:00,
2013-08-20 05:13:00,60.8,58.8,30.02,SE,130,0.0,0.0,93,0.00,,CLR,0.00,0.00,VWS V14.01,2013-08-20 09:13:00,
2013-08-20 05:18:00,60.8,58.8,30.02,SE,130,0.0,0.0,93,0.00,,CLR,0.00,0.00,VWS V14.01,2013-08-20 09:18:00,
2013-08-20 05:23:00,60.7,58.7,30.02,SE,130,0.0,0.0,93,0.00,,CLR,0.00,0.00,VWS V14.01,2013-08-20 09:23:00,
2013-08-20 05:28:00,60.7,58.7,30.02,SE,130,0.0,0.0,93,0.00,,CLR,0.00,0.00,VWS V14.01,2013-08-20 09:28:00,
2013-08-20 05:33:00,60.6,58.9,30.03,SE,130,0.0,0.0,94,0.00,,CLR,0.00,0.00,VWS V14.01,2013-08-20 09:33:00,
2013-08-20 05:38:00,60.5,58.8,30.03,SE,130,0.0,0.0,94,0.00,,CLR,0.00,0.00,VWS V14.01,2013-08-20 09:38:00,
2013-08-20 05:43:00,60.5,58.8,30.03,SE,130,0.0,0.0,94,0.00,,CLR,0.00,0.00,VWS V14.01,2013-08-20 09:43:00,
2013-08-20 05:48:00,60.4,58.7,30.03,SE,130,0.0,0.0,94,0.00,,CLR,0.00,0.00,VWS V14.01,2013-08-20 09:48:00,
2013-08-20 05:53:00,60.3,58.6,30.03,SE,130,0.0,0.0,94,0.00,,CLR,0.00,0.00,VWS V14.01,2013-08-20 09:53:00,
2013-08-20 05:58:00,60.2,58.5,30.03,SE,130,0.0,0.0,94,0.00,,CLR,0.00,0.00,VWS V14.01,2013-08-20 09:58:00,
2013-08-20 06:03:00,60.1,58.4,30.03,SE,130,0.0,0.0,94,0.00,,CLR,0.00,0.00,VWS V14.01,2013-08-20 10:03:00,
2013-08-20 06:08:00,60.1,58.4,30.03,SE,130,0.0,0.0,94,0.00,,CLR,0.00,7.00,VWS V14.01,2013-08-20 10:08:00,
2013-08-20 06:13:00,60.1,58.4,30.03,SE,130,0.0,0.0,94,0.00,,CLR,0.00,9.00,VWS V14.01,2013-08-20 10:13:00,
2013-08-20 06:18:00,60.0,58.3,30.03,SE,130,0.0,0.0,94,0.00,,CLR,0.00,12.00,VWS V14.01,2013-08-20 10:18:00,
2013-08-20 06:23:00,60.0,58.3,30.03,SE,130,0.0,0.0,94,0.00,,CLR,0.00,16.00,VWS V14.01,2013-08-20 10:23:00,
2013-08-20 06:28:00,60.1,58.4,30.03,SE,130,0.0,0.0,94,0.00,,CLR,0.00,19.00,VWS V14.01,2013-08-20 10:28:00,
2013-08-20 06:33:00,60.2,58.8,30.04,SE,130,0.0,0.0,95,0.00,,CLR,0.00,25.00,VWS V14.01,2013-08-20 10:33:00,
2013-08-20 06:38:00,60.3,58.9,30.04,SE,130,0.0,0.0,95,0.00,,CLR,0.00,28.00,VWS V14.01,2013-08-20 10:38:00,
2013-08-20 06:43:00,60.5,59.1,30.04,SE,130,0.0,0.0,95,0.00,,CLR,0.00,33.00,VWS V14.01,2013-08-20 10:43:00,
2013-08-20 06:48:00,60.7,59.3,30.04,SE,130,0.0,0.0,95,0.00,,CLR,0.00,37.00,VWS V14.01,2013-08-20 10:48:00,
2013-08-20 06:53:00,60.8,59.4,30.04,SE,130,0.0,0.0,95,0.00,,CLR,0.00,44.00,VWS V14.01,2013-08-20 10:53:00,
2013-08-20 06:58:00,61.0,59.6,30.04,SE,130,0.0,0.0,95,0.00,,CLR,0.00,53.00,VWS V14.01,2013-08-20 10:58:00,
2013-08-20 07:03:00,61.3,59.9,30.05,SE,130,0.0,0.0,95,0.00,,CLR,0.00,107.00,VWS V14.01,2013-08-20 11:03:00,
2013-08-20 07:08:00,61.7,60.3,30.05,SE,130,0.0,0.0,95,0.00,,CLR,0.00,120.00,VWS V14.01,2013-08-20 11:08:00,
2013-08-20 07:13:00,62.0,60.6,30.05,SE,130,0.0,0.0,95,0.00,,CLR,0.00,132.00,VWS V14.01,2013-08-20 11:13:00,
2013-08-20 07:18:00,62.3,60.6,30.05,SE,130,0.0,0.0,94,0.00,,CLR,0.00,149.00,VWS V14.01,2013-08-20 11:18:00,
2013-08-20 07:23:00,62.8,61.0,30.05,SE,130,0.0,0.0,94,0.00,,CLR,0.00,171.00,VWS V14.01,2013-08-20 11:23:00,
2013-08-20 07:28:00,63.2,61.2,30.05,SE,130,0.0,0.0,93,0.00,,CLR,0.00,185.00,VWS V14.01,2013-08-20 11:28:00,
2013-08-20 07:33:00,63.6,61.5,30.05,SE,130,0.0,0.0,93,0.00,,CLR,0.00,200.00,VWS V14.01,2013-08-20 11:33:00,
2013-08-20 07:38:00,64.2,61.8,30.05,SE,130,0.0,0.0,92,0.00,,CLR,0.00,216.00,VWS V14.01,2013-08-20 11:38:00,
2013-08-20 07:43:00,64.7,62.0,30.05,SE,130,0.0,0.0,91,0.00,,CLR,0.00,234.00,VWS V14.01,2013-08-20 11:43:00,
2013-08-20 07:48:00,65.1,62.1,30.05,SE,130,0.0,0.0,90,0.00,,CLR,0.00,253.00,VWS V14.01,2013-08-20 11:48:00,
2013-08-20 07:53:00,65.5,62.8,30.05,SE,130,0.0,0.0,91,0.00,,CLR,0.00,269.00,VWS V14.01,2013-08-20 11:53:00,
2013-08-20 07:58:00,65.9,62.9,30.05,SE,130,0.0,0.0,90,0.00,,CLR,0.00,283.00,VWS V14.01,2013-08-20 11:58:00,
2013-08-20 08:03:00,66.1,62.8,30.06,SE,130,0.0,0.0,89,0.00,,CLR,0.00,148.00,VWS V14.01,2013-08-20 12:03:00,
2013-08-20 08:08:00,66.2,62.5,30.06,SE,130,0.0,0.0,88,0.00,,CLR,0.00,98.00,VWS V14.01,2013-08-20 12:08:00,
2013-08-20 08:13:00,66.4,62.7,30.06,SE,130,0.0,0.0,88,0.00,,CLR,0.00,255.00,VWS V14.01,2013-08-20 12:13:00,
2013-08-20 08:18:00,66.6,62.6,30.06,SE,130,0.0,0.0,87,0.00,,CLR,0.00,149.00,VWS V14.01,2013-08-20 12:18:00,
2013-08-20 08:23:00,67.0,63.3,30.06,SE,130,0.0,0.0,88,0.00,,CLR,0.00,123.00,VWS V14.01,2013-08-20 12:23:00,
2013-08-20 08:28:00,67.4,63.4,30.06,SE,130,0.0,0.0,87,0.00,,CLR,0.00,221.00,VWS V14.01,2013-08-20 12:28:00,
2013-08-20 08:33:00,67.7,63.4,30.06,SE,130,0.0,0.0,86,0.00,,CLR,0.00,118.00,VWS V14.01,2013-08-20 12:33:00,
2013-08-20 08:38:00,68.0,63.7,30.06,SE,130,0.0,0.0,86,0.00,,CLR,0.00,130.00,VWS V14.01,2013-08-20 12:38:00,
2013-08-20 08:44:00,68.4,64.1,30.06,SE,130,0.0,0.0,86,0.00,,CLR,0.00,128.00,VWS V14.01,2013-08-20 12:44:00,
2013-08-20 08:49:00,68.8,64.1,30.06,SE,130,0.0,2.0,85,0.00,,CLR,0.00,142.00,VWS V14.01,2013-08-20 12:49:00,
2013-08-20 08:54:00,69.3,64.3,30.06,SE,130,0.0,1.0,84,0.00,,CLR,0.00,218.00,VWS V14.01,2013-08-20 12:54:00,
2013-08-20 08:59:00,69.9,64.5,30.07,SE,130,0.0,2.0,83,0.00,,CLR,0.00,236.00,VWS V14.01,2013-08-20 12:59:00,
2013-08-20 09:04:00,70.4,64.3,30.07,NE,49,0.0,3.0,81,0.00,,CLR,0.00,144.00,VWS V14.01,2013-08-20 13:04:00,
2013-08-20 09:09:00,70.8,64.0,30.07,NE,49,0.0,3.0,79,0.00,,CLR,0.00,172.00,VWS V14.01,2013-08-20 13:09:00,
2013-08-20 09:14:00,71.3,64.8,30.07,NE,49,0.0,0.0,80,0.00,,CLR,0.00,519.00,VWS V14.01,2013-08-20 13:14:00,
2013-08-20 09:19:00,71.9,65.0,30.07,NE,49,0.0,0.0,79,0.00,,CLR,0.00,534.00,VWS V14.01,2013-08-20 13:19:00,
2013-08-20 09:24:00,72.6,65.3,30.07,NE,49,0.0,0.0,78,0.00,,CLR,0.00,548.00,VWS V14.01,2013-08-20 13:24:00,
2013-08-20 09:29:00,73.3,66.0,30.07,NE,49,0.0,1.0,78,0.00,,CLR,0.00,564.00,VWS V14.01,2013-08-20 13:29:00,
2013-08-20 09:34:00,73.9,66.2,30.07,NE,49,0.0,0.0,77,0.00,,CLR,0.00,577.00,VWS V14.01,2013-08-20 13:34:00,
2013-08-20 09:39:00,74.6,65.8,30.07,NE,49,0.0,1.0,74,0.00,,CLR,0.00,585.00,VWS V14.01,2013-08-20 13:39:00,
2013-08-20 09:44:00,75.2,66.3,30.07,NE,49,0.0,2.0,74,0.00,,CLR,0.00,603.00,VWS V14.01,2013-08-20 13:44:00,
2013-08-20 09:49:00,75.5,67.0,30.07,NE,49,2.0,2.0,75,0.00,,CLR,0.00,671.00,VWS V14.01,2013-08-20 13:49:00,
2013-08-20 09:54:00,76.0,65.9,30.07,NE,49,0.0,1.0,71,0.00,,CLR,0.00,696.00,VWS V14.01,2013-08-20 13:54:00,
2013-08-20 09:59:00,76.4,66.3,30.07,NE,49,0.0,1.0,71,0.00,,CLR,0.00,708.00,VWS V14.01,2013-08-20 13:59:00,
2013-08-20 10:04:00,76.7,67.0,30.07,NE,49,0.0,0.0,72,0.00,,CLR,0.00,719.00,VWS V14.01,2013-08-20 14:04:00,
2013-08-20 10:09:00,76.9,66.4,30.07,NE,49,0.0,4.0,70,0.00,,CLR,0.00,719.00,VWS V14.01,2013-08-20 14:09:00,
2013-08-20 10:14:00,77.0,67.3,30.06,NE,49,0.0,3.0,72,0.00,,CLR,0.00,691.00,VWS V14.01,2013-08-20 14:14:00,
2013-08-20 10:19:00,77.8,67.2,30.07,NE,49,0.0,3.0,70,0.00,,CLR,0.00,698.00,VWS V14.01,2013-08-20 14:19:00,
2013-08-20 10:24:00,78.7,67.3,30.07,NE,49,0.0,1.0,68,0.00,,CLR,0.00,705.00,VWS V14.01,2013-08-20 14:24:00,
2013-08-20 10:29:00,78.9,67.0,30.07,NNE,16,0.0,2.0,67,0.00,,CLR,0.00,717.00,VWS V14.01,2013-08-20 14:29:00,
2013-08-20 10:34:00,78.8,67.4,30.07,NNE,26,0.0,1.0,68,0.00,,CLR,0.00,731.00,VWS V14.01,2013-08-20 14:34:00,
2013-08-20 10:39:00,79.2,67.3,30.07,NNE,28,0.0,1.0,67,0.00,,CLR,0.00,737.00,VWS V14.01,2013-08-20 14:39:00,
2013-08-20 10:44:00,79.5,68.0,30.07,NE,42,2.0,3.0,68,0.00,,CLR,0.00,751.00,VWS V14.01,2013-08-20 14:44:00,
2013-08-20 10:49:00,79.6,69.0,30.07,NE,41,0.0,3.0,70,0.00,,CLR,0.00,754.00,VWS V14.01,2013-08-20 14:49:00,
2013-08-20 10:54:00,79.7,68.2,30.07,NE,53,3.0,3.0,68,0.00,,CLR,0.00,765.00,VWS V14.01,2013-08-20 14:54:00,
2013-08-20 10:59:00,79.8,67.4,30.07,ENE,63,0.0,4.0,66,0.00,,CLR,0.00,775.00,VWS V14.01,2013-08-20 14:59:00,
2013-08-20 11:04:00,79.8,68.3,30.07,NE,41,1.0,5.0,68,0.00,,FEW040,0.00,782.00,VWS V14.01,2013-08-20 15:04:00,
2013-08-20 11:09:00,80.0,66.3,30.07,NNE,13,0.0,5.0,63,0.00,,FEW040,0.00,786.00,VWS V14.01,2013-08-20 15:09:00,
2013-08-20 11:14:00,80.3,67.5,30.07,NNE,27,1.0,3.0,65,0.00,,FEW040,0.00,793.00,VWS V14.01,2013-08-20 15:14:00,
2013-08-20 11:19:00,80.5,67.2,30.07,NNE,27,0.0,3.0,64,0.00,,FEW040,0.00,802.00,VWS V14.01,2013-08-20 15:19:00,
2013-08-20 11:24:00,80.7,67.4,30.07,NNE,25,0.0,3.0,64,0.00,,FEW040,0.00,812.00,VWS V14.01,2013-08-20 15:24:00,
2013-08-20 11:29:00,80.6,66.8,30.07,ENE,60,0.0,7.0,63,0.00,,FEW040,0.00,816.00,VWS V14.01,2013-08-20 15:29:00,
2013-08-20 11:34:00,80.9,68.0,30.07,ENE,60,0.0,3.0,65,0.00,,FEW040,0.00,823.00,VWS V14.01,2013-08-20 15:34:00,
2013-08-20 11:39:00,81.4,67.1,30.07,ENE,60,0.0,3.0,62,0.00,,FEW040,0.00,833.00,VWS V14.01,2013-08-20 15:39:00,
2013-08-20 11:44:00,82.0,69.1,30.07,ENE,60,0.0,1.0,65,0.00,,FEW040,0.00,837.00,VWS V14.01,2013-08-20 15:44:00,
2013-08-20 11:49:00,82.2,68.4,30.07,ENE,60,0.0,2.0,63,0.00,,FEW040,0.00,835.00,VWS V14.01,2013-08-20 15:49:00,
2013-08-20 11:55:00,82.1,66.8,30.07,NE,35,1.0,3.0,60,0.00,,FEW040,0.00,842.00,VWS V14.01,2013-08-20 15:55:00,
2013-08-20 12:00:00,82.0,65.8,30.06,NE,35,0.0,3.0,58,0.00,,FEW040,0.00,838.00,VWS V14.01,2013-08-20 16:00:00,
2013-08-20 12:05:00,82.4,68.1,30.06,NE,40,2.0,3.0,62,0.00,,FEW040,0.00,847.00,VWS V14.01,2013-08-20 16:05:00,
2013-08-20 12:10:00,82.8,67.5,30.06,NNE,32,0.0,3.0,60,0.00,,FEW040,0.00,860.00,VWS V14.01,2013-08-20 16:10:00,
2013-08-20 12:15:00,82.8,68.0,30.07,NNE,32,0.0,3.0,61,0.00,,FEW040,0.00,860.00,VWS V14.01,2013-08-20 16:15:00,
2013-08-20 12:20:00,83.0,67.7,30.07,NNE,32,0.0,3.0,60,0.00,,FEW040,0.00,863.00,VWS V14.01,2013-08-20 16:20:00,
2013-08-20 12:25:00,83.3,67.0,30.06,NNE,33,2.0,4.0,58,0.00,,FEW040,0.00,865.00,VWS V14.01,2013-08-20 16:25:00,
2013-08-20 12:30:00,83.2,65.4,30.06,NE,54,1.0,4.0,55,0.00,,FEW040,0.00,870.00,VWS V14.01,2013-08-20 16:30:00,
2013-08-20 12:35:00,83.0,65.2,30.06,NE,54,0.0,3.0,55,0.00,,FEW040,0.00,865.00,VWS V14.01,2013-08-20 16:35:00,
2013-08-20 12:40:00,82.7,66.4,30.06,NE,54,0.0,3.0,58,0.00,,FEW040,0.00,877.00,VWS V14.01,2013-08-20 16:40:00,
2013-08-20 12:45:00,82.9,66.1,30.06,NE,54,0.0,2.0,57,0.00,,FEW040,0.00,842.00,VWS V14.01,2013-08-20 16:45:00,
2013-08-20 12:50:00,83.5,65.7,30.06,NW,318,1.0,4.0,55,0.00,,FEW040,0.00,916.00,VWS V14.01,2013-08-20 16:50:00,
2013-08-20 12:55:00,83.4,65.0,30.06,ENE,57,3.0,4.0,54,0.00,,FEW040,0.00,882.00,VWS V14.01,2013-08-20 16:55:00,
2013-08-20 13:00:00,83.0,66.2,30.06,NE,55,4.0,4.0,57,0.00,,FEW040,0.00,909.00,VWS V14.01,2013-08-20 17:00:00,
2013-08-20 13:05:00,83.2,67.9,30.06,NE,51,0.0,5.0,60,0.00,,FEW040,0.00,870.00,VWS V14.01,2013-08-20 17:05:00,
2013-08-20 13:10:00,83.2,64.3,30.06,ENE,63,0.0,5.0,53,0.00,,FEW040,0.00,881.00,VWS V14.01,2013-08-20 17:10:00,
2013-08-20 13:15:00,83.6,65.7,30.06,ENE,63,0.0,4.0,55,0.00,,FEW040,0.00,900.00,VWS V14.01,2013-08-20 17:15:00,
2013-08-20 13:20:00,83.3,63.9,30.06,ENE,62,0.0,4.0,52,0.00,,FEW040,0.00,221.00,VWS V14.01,2013-08-20 17:20:00,
2013-08-20 13:25:00,82.8,65.0,30.06,ENE,62,1.0,2.0,55,0.00,,FEW040,0.00,884.00,VWS V14.01,2013-08-20 17:25:00,
2013-08-20 13:30:00,82.9,64.6,30.06,North,360,0.0,2.0,54,0.00,,FEW040,0.00,856.00,VWS V14.01,2013-08-20 17:30:00,
2013-08-20 13:35:00,83.6,65.2,30.06,NNW,338,0.0,2.0,54,0.00,,FEW040,0.00,840.00,VWS V14.01,2013-08-20 17:35:00,
2013-08-20 13:40:00,84.1,64.6,30.05,SSW,213,0.0,2.0,52,0.00,,FEW040,0.00,840.00,VWS V14.01,2013-08-20 17:40:00,
2013-08-20 13:45:00,84.6,68.2,30.05,SSW,210,0.0,3.0,58,0.00,,FEW040,0.00,838.00,VWS V14.01,2013-08-20 17:45:00,
2013-08-20 13:50:00,85.2,65.6,30.05,ESE,114,1.0,2.0,52,0.00,,FEW040,0.00,816.00,VWS V14.01,2013-08-20 17:50:00,
2013-08-20 13:55:00,85.5,68.0,30.05,NW,319,0.0,3.0,56,0.00,,FEW040,0.00,816.00,VWS V14.01,2013-08-20 17:55:00,
2013-08-20 14:00:00,85.9,65.1,30.05,NW,319,0.0,0.0,50,0.00,,FEW060,0.00,809.00,VWS V14.01,2013-08-20 18:00:00,
2013-08-20 14:05:00,85.7,64.9,30.05,North,355,0.0,3.0,50,0.00,,FEW060,0.00,796.00,VWS V14.01,2013-08-20 18:05:00,
2013-08-20 14:10:00,85.2,66.7,30.05,SSW,206,0.0,0.0,54,0.00,,FEW060,0.00,791.00,VWS V14.01,2013-08-20 18:10:00,
2013-08-20 14:15:00,84.3,65.9,30.05,SE,140,0.0,3.0,54,0.00,,FEW060,0.00,780.00,VWS V14.01,2013-08-20 18:15:00,
2013-08-20 14:20:00,84.4,67.0,30.04,SE,134,0.0,0.0,56,0.00,,FEW060,0.00,780.00,VWS V14.01,2013-08-20 18:20:00,
2013-08-20 14:25:00,84.5,65.0,30.04,SE,125,0.0,3.0,52,0.00,,FEW060,0.00,768.00,VWS V14.01,2013-08-20 18:25:00,
2013-08-20 14:30:00,85.0,64.9,30.04,ESE,121,0.0,0.0,51,0.00,,FEW060,0.00,765.00,VWS V14.01,2013-08-20 18:30:00,
2013-08-20 14:35:00,85.2,66.7,30.04,ESE,121,0.0,2.0,54,0.00,,FEW060,0.00,763.00,VWS V14.01,2013-08-20 18:35:00,
2013-08-20 14:40:00,85.6,67.1,30.04,ESE,121,0.0,0.0,54,0.00,,FEW060,0.00,749.00,VWS V14.01,2013-08-20 18:40:00,
2013-08-20 14:45:00,85.9,65.7,30.04,ESE,121,0.0,1.0,51,0.00,,FEW060,0.00,740.00,VWS V14.01,2013-08-20 18:45:00,
2013-08-20 14:50:00,86.5,64.5,30.03,ESE,119,0.0,2.0,48,0.00,,FEW060,0.00,729.00,VWS V14.01,2013-08-20 18:50:00,
2013-08-20 14:55:00,86.3,65.5,30.03,ESE,103,0.0,3.0,50,0.00,,FEW060,0.00,712.00,VWS V14.01,2013-08-20 18:55:00,
2013-08-20 15:00:00,86.3,66.6,30.04,NE,41,1.0,1.0,52,0.00,,FEW060,0.00,703.00,VWS V14.01,2013-08-20 19:00:00,
2013-08-20 15:05:00,86.4,66.7,30.03,SSW,200,0.0,2.0,52,0.00,,FEW060,0.00,700.00,VWS V14.01,2013-08-20 19:05:00,
2013-08-20 15:11:00,86.8,68.2,30.03,SSW,200,1.0,1.0,54,0.00,,FEW060,0.00,587.00,VWS V14.01,2013-08-20 19:11:00,
2013-08-20 15:16:00,86.7,67.0,30.03,SSW,200,1.0,3.0,52,0.00,,FEW060,0.00,666.00,VWS V14.01,2013-08-20 19:16:00,
2013-08-20 15:21:00,86.8,68.2,30.03,SSW,200,1.0,1.0,54,0.00,,FEW060,0.00,670.00,VWS V14.01,2013-08-20 19:21:00,
2013-08-20 15:26:00,86.5,65.7,30.04,East,90,0.0,3.0,50,0.00,,FEW060,0.00,671.00,VWS V14.01,2013-08-20 19:26:00,
2013-08-20 15:31:00,86.3,66.1,30.04,East,87,0.0,0.0,51,0.00,,FEW060,0.00,654.00,VWS V14.01,2013-08-20 19:31:00,
2013-08-20 15:36:00,86.1,66.4,30.04,East,87,0.0,1.0,52,0.00,,FEW060,0.00,629.00,VWS V14.01,2013-08-20 19:36:00,
2013-08-20 15:41:00,86.3,64.9,30.04,East,87,0.0,1.0,49,0.00,,FEW060,0.00,622.00,VWS V14.01,2013-08-20 19:41:00,
2013-08-20 15:46:00,86.5,64.5,30.04,East,87,0.0,1.0,48,0.00,,FEW060,0.00,605.00,VWS V14.01,2013-08-20 19:46:00,
2013-08-20 15:51:00,86.6,64.6,30.04,East,86,2.0,2.0,48,0.00,,FEW060,0.00,591.00,VWS V14.01,2013-08-20 19:51:00,
2013-08-20 15:56:00,86.6,65.8,30.04,ESE,115,0.0,2.0,50,0.00,,FEW060,0.00,571.00,VWS V14.01,2013-08-20 19:56:00,
2013-08-20 16:01:00,86.4,64.4,30.04,ESE,115,0.0,0.0,48,0.00,,FEW060,0.00,568.00,VWS V14.01,2013-08-20 20:01:00,
2013-08-20 16:06:00,85.6,66.0,30.04,East,101,0.0,3.0,52,0.00,,FEW060,0.00,555.00,VWS V14.01,2013-08-20 20:06:00,
2013-08-20 16:11:00,85.7,64.4,30.04,East,101,0.0,0.0,49,0.00,,FEW060,0.00,534.00,VWS V14.01,2013-08-20 20:11:00,
2013-08-20 16:16:00,85.7,66.1,30.04,East,101,0.0,0.0,52,0.00,,FEW060,0.00,515.00,VWS V14.01,2013-08-20 20:16:00,
2013-08-20 16:21:00,85.9,65.1,30.04,East,101,0.0,1.0,50,0.00,,FEW060,0.00,506.00,VWS V14.01,2013-08-20 20:21:00,
2013-08-20 16:26:00,85.4,64.7,30.04,ENE,73,0.0,4.0,50,0.00,,FEW060,0.00,487.00,VWS V14.01,2013-08-20 20:26:00,
2013-08-20 16:31:00,85.1,63.8,30.04,ENE,73,0.0,0.0,49,0.00,,FEW060,0.00,475.00,VWS V14.01,2013-08-20 20:31:00,
2013-08-20 16:36:00,85.2,64.5,30.04,North,349,3.0,4.0,50,0.00,,FEW060,0.00,466.00,VWS V14.01,2013-08-20 20:36:00,
2013-08-20 16:41:00,84.7,63.5,30.04,ENE,64,1.0,4.0,49,0.00,,FEW060,0.00,295.00,VWS V14.01,2013-08-20 20:41:00,
2013-08-20 16:46:00,84.1,64.0,30.04,ENE,61,2.0,4.0,51,0.00,,FEW060,0.00,236.00,VWS V14.01,2013-08-20 20:46:00,
2013-08-20 16:51:00,83.4,64.5,30.04,ENE,61,0.0,0.0,53,0.00,,FEW060,0.00,98.00,VWS V14.01,2013-08-20 20:51:00,
2013-08-20 16:56:00,83.1,64.8,30.04,ENE,61,0.0,0.0,54,0.00,,FEW060,0.00,128.00,VWS V14.01,2013-08-20 20:56:00,
2013-08-20 17:01:00,82.9,65.1,30.04,ENE,61,0.0,0.0,55,0.00,,SCT060,0.00,369.00,VWS V14.01,2013-08-20 21:01:00,
2013-08-20 17:06:00,82.9,65.1,30.04,ENE,61,0.0,0.0,55,0.00,,SCT060,0.00,107.00,VWS V14.01,2013-08-20 21:06:00,
2013-08-20 17:11:00,82.9,65.1,30.04,ENE,61,0.0,0.0,55,0.00,,SCT060,0.00,134.00,VWS V14.01,2013-08-20 21:11:00,
2013-08-20 17:16:00,82.8,64.5,30.04,ENE,61,0.0,0.0,54,0.00,,SCT060,0.00,120.00,VWS V14.01,2013-08-20 21:16:00,
2013-08-20 17:21:00,82.6,65.3,30.04,ENE,61,0.0,0.0,56,0.00,,SCT060,0.00,120.00,VWS V14.01,2013-08-20 21:21:00,
2013-08-20 17:26:00,82.4,65.1,30.04,ENE,61,0.0,0.0,56,0.00,,SCT060,0.00,104.00,VWS V14.01,2013-08-20 21:26:00,
2013-08-20 17:31:00,82.1,65.9,30.05,ENE,61,0.0,0.0,58,0.00,,SCT060,0.00,104.00,VWS V14.01,2013-08-20 21:31:00,
2013-08-20 17:36:00,81.6,65.9,30.05,ENE,61,0.0,0.0,59,0.00,,SCT060,0.00,109.00,VWS V14.01,2013-08-20 21:36:00,
2013-08-20 17:41:00,81.3,65.6,30.05,ENE,61,0.0,0.0,59,0.00,,SCT060,0.00,79.00,VWS V14.01,2013-08-20 21:41:00,
2013-08-20 17:46:00,81.0,66.3,30.05,ENE,61,0.0,0.0,61,0.00,,SCT060,0.00,90.00,VWS V14.01,2013-08-20 21:46:00,
2013-08-20 17:52:00,80.8,66.1,30.05,ENE,61,0.0,0.0,61,0.00,,SCT060,0.00,63.00,VWS V14.01,2013-08-20 21:52:00,
2013-08-20 17:57:00,80.7,66.5,30.05,ENE,61,0.0,0.0,62,0.00,,SCT060,0.00,46.00,VWS V14.01,2013-08-20 21:57:00,
2013-08-20 18:02:00,80.5,66.3,30.04,ENE,61,0.0,0.0,62,0.00,,CLR,0.00,49.00,VWS V14.01,2013-08-20 22:02:00,
2013-08-20 18:07:00,80.2,66.5,30.05,ENE,61,0.0,0.0,63,0.00,,CLR,0.00,47.00,VWS V14.01,2013-08-20 22:07:00,
2013-08-20 18:12:00,79.8,65.6,30.05,ENE,61,0.0,0.0,62,0.00,,CLR,0.00,40.00,VWS V14.01,2013-08-20 22:12:00,
2013-08-20 18:17:00,79.6,65.9,30.05,ENE,61,0.0,0.0,63,0.00,,CLR,0.00,40.00,VWS V14.01,2013-08-20 22:17:00,
2013-08-20 18:22:00,79.3,66.1,30.05,ENE,61,0.0,0.0,64,0.00,,CLR,0.00,37.00,VWS V14.01,2013-08-20 22:22:00,
2013-08-20 18:27:00,79.1,65.4,30.05,ENE,61,0.0,0.0,63,0.00,,CLR,0.00,35.00,VWS V14.01,2013-08-20 22:27:00,
2013-08-20 18:32:00,78.9,65.7,30.05,ENE,61,0.0,0.0,64,0.00,,CLR,0.00,33.00,VWS V14.01,2013-08-20 22:32:00,
2013-08-20 18:37:00,78.7,65.5,30.05,ENE,61,0.0,0.0,64,0.00,,CLR,0.00,32.00,VWS V14.01,2013-08-20 22:37:00,
2013-08-20 18:42:00,78.6,65.9,30.05,ENE,61,0.0,0.0,65,0.00,,CLR,0.00,30.00,VWS V14.01,2013-08-20 22:42:00,
2013-08-20 18:47:00,78.3,65.6,30.05,ENE,61,0.0,0.0,65,0.00,,CLR,0.00,32.00,VWS V14.01,2013-08-20 22:47:00,
2013-08-20 18:52:00,78.0,65.3,30.05,ENE,61,0.0,0.0,65,0.00,,CLR,0.00,32.00,VWS V14.01,2013-08-20 22:52:00,
2013-08-20 18:57:00,77.8,65.5,30.05,ENE,61,0.0,0.0,66,0.00,,CLR,0.00,32.00,VWS V14.01,2013-08-20 22:57:00,
2013-08-20 19:02:00,77.6,65.8,30.05,ENE,61,0.0,0.0,67,0.00,,CLR,0.00,32.00,VWS V14.01,2013-08-20 23:02:00,
2013-08-20 19:07:00,77.4,66.0,30.05,ENE,61,0.0,0.0,68,0.00,,CLR,0.00,32.00,VWS V14.01,2013-08-20 23:07:00,
2013-08-20 19:12:00,77.2,66.2,30.06,ENE,61,0.0,0.0,69,0.00,,CLR,0.00,26.00,VWS V14.01,2013-08-20 23:12:00,
2013-08-20 19:17:00,77.0,66.9,30.06,ENE,61,0.0,0.0,71,0.00,,CLR,0.00,19.00,VWS V14.01,2013-08-20 23:17:00,
2013-08-20 19:22:00,76.9,66.4,30.06,ENE,61,0.0,0.0,70,0.00,,CLR,0.00,14.00,VWS V14.01,2013-08-20 23:22:00,
2013-08-20 19:27:00,76.7,66.2,30.06,ENE,61,0.0,0.0,70,0.00,,CLR,0.00,11.00,VWS V14.01,2013-08-20 23:27:00,
2013-08-20 19:32:00,76.6,66.5,30.06,ENE,61,0.0,0.0,71,0.00,,CLR,0.00,7.00,VWS V14.01,2013-08-20 23:32:00,
2013-08-20 19:37:00,76.4,67.1,30.06,ENE,61,0.0,0.0,73,0.00,,CLR,0.00,5.00,VWS V14.01,2013-08-20 23:37:00,
2013-08-20 19:42:00,76.1,66.8,30.06,ENE,61,0.0,0.0,73,0.00,,CLR,0.00,0.00,VWS V14.01,2013-08-20 23:42:00,
2013-08-20 19:47:00,75.7,66.8,30.06,ENE,61,0.0,0.0,74,0.00,,CLR,0.00,0.00,VWS V14.01,2013-08-20 23:47:00,
2013-08-20 19:52:00,75.4,68.1,30.06,ENE,61,0.0,0.0,78,0.00,,CLR,0.00,0.00,VWS V14.01,2013-08-20 23:52:00,
2013-08-20 19:57:00,75.2,68.6,30.06,ENE,61,0.0,0.0,80,0.00,,CLR,0.00,0.00,VWS V14.01,2013-08-20 23:57:00,
2013-08-20 20:02:00,75.1,68.2,30.06,ENE,61,0.0,0.0,79,0.00,,CLR,0.00,0.00,VWS V14.01,2013-08-21 00:02:00,
2013-08-20 20:07:00,74.7,66.3,30.06,ENE,61,0.0,0.0,75,0.00,,CLR,0.00,0.00,VWS V14.01,2013-08-21 00:07:00,
2013-08-20 20:12:00,74.4,66.0,30.06,ENE,61,0.0,0.0,75,0.00,,CLR,0.00,0.00,VWS V14.01,2013-08-21 00:12:00,
2013-08-20 20:17:00,74.1,65.7,30.06,ENE,61,0.0,0.0,75,0.00,,CLR,0.00,0.00,VWS V14.01,2013-08-21 00:17:00,
2013-08-20 20:22:00,73.9,66.6,30.06,ENE,61,0.0,0.0,78,0.00,,CLR,0.00,0.00,VWS V14.01,2013-08-21 00:22:00,
2013-08-20 20:27:00,73.6,66.3,30.07,ENE,61,0.0,0.0,78,0.00,,CLR,0.00,0.00,VWS V14.01,2013-08-21 00:27:00,
2013-08-20 20:32:00,73.4,65.4,30.07,ENE,61,0.0,0.0,76,0.00,,CLR,0.00,0.00,VWS V14.01,2013-08-21 00:32:00,
2013-08-20 20:37:00,73.1,65.1,30.07,ENE,61,0.0,0.0,76,0.00,,CLR,0.00,0.00,VWS V14.01,2013-08-21 00:37:00,
2013-08-20 20:42:00,72.8,65.2,30.07,ENE,61,0.0,0.0,77,0.00,,CLR,0.00,0.00,VWS V14.01,2013-08-21 00:42:00,
2013-08-20 20:47:00,72.6,65.0,30.07,ENE,61,0.0,0.0,77,0.00,,CLR,0.00,0.00,VWS V14.01,2013-08-21 00:47:00,
2013-08-20 20:52:00,72.3,64.7,30.07,ENE,61,0.0,0.0,77,0.00,,CLR,0.00,0.00,VWS V14.01,2013-08-21 00:52:00,
2013-08-20 20:57:00,72.0,64.4,30.08,ENE,61,0.0,0.0,77,0.00,,CLR,0.00,0.00,VWS V14.01,2013-08-21 00:57:00,
2013-08-20 21:02:00,71.8,64.2,30.08,ENE,61,0.0,0.0,77,0.00,,CLR,0.00,0.00,VWS V14.01,2013-08-21 01:02:00,
2013-08-20 21:07:00,71.6,64.0,30.08,ENE,61,0.0,0.0,77,0.00,,CLR,0.00,0.00,VWS V14.01,2013-08-21 01:07:00,
2013-08-20 21:12:00,71.3,64.1,30.08,ENE,61,0.0,0.0,78,0.00,,CLR,0.00,0.00,VWS V14.01,2013-08-21 01:12:00,
2013-08-20 21:17:00,71.1,64.3,30.08,ENE,61,0.0,0.0,79,0.00,,CLR,0.00,0.00,VWS V14.01,2013-08-21 01:17:00,
2013-08-20 21:19:00,71.0,64.2,30.08,ENE,61,0.0,0.0,79,0.00,,CLR,0.00,0.00,VWS V14.01,2013-08-21 01:19:00,
2013-08-20 21:24:00,70.7,63.9,30.08,ENE,61,0.0,0.0,79,0.00,,CLR,0.00,0.00,VWS V14.01,2013-08-21 01:24:00,
2013-08-20 21:29:00,70.5,64.0,30.08,ENE,61,0.0,0.0,80,0.00,,CLR,0.00,0.00,VWS V14.01,2013-08-21 01:29:00,
2013-08-20 21:34:00,70.3,63.8,30.08,ENE,61,0.0,0.0,80,0.00,,CLR,0.00,0.00,VWS V14.01,2013-08-21 01:34:00,
2013-08-20 21:39:00,70.1,64.0,30.08,ENE,61,0.0,0.0,81,0.00,,CLR,0.00,0.00,VWS V14.01,2013-08-21 01:39:00,
2013-08-20 21:44:00,69.9,64.2,30.08,ENE,61,0.0,0.0,82,0.00,,CLR,0.00,0.00,VWS V14.01,2013-08-21 01:44:00,
2013-08-20 21:49:00,69.7,64.3,30.08,ENE,61,0.0,0.0,83,0.00,,CLR,0.00,0.00,VWS V14.01,2013-08-21 01:49:00,
2013-08-20 21:54:00,69.6,64.6,30.08,ENE,61,0.0,0.0,84,0.00,,CLR,0.00,0.00,VWS V14.01,2013-08-21 01:54:00,
2013-08-20 21:59:00,69.5,64.5,30.08,ENE,61,0.0,0.0,84,0.00,,CLR,0.00,0.00,VWS V14.01,2013-08-21 01:59:00,
2013-08-20 22:04:00,69.4,64.4,30.08,ENE,61,0.0,0.0,84,0.00,,CLR,0.00,0.00,VWS V14.01,2013-08-21 02:04:00,
2013-08-20 22:09:00,69.2,64.2,30.08,ENE,61,0.0,0.0,84,0.00,,CLR,0.00,0.00,VWS V14.01,2013-08-21 02:09:00,
2013-08-20 22:14:00,69.1,64.1,30.09,ENE,61,0.0,0.0,84,0.00,,CLR,0.00,0.00,VWS V14.01,2013-08-21 02:14:00,
2013-08-20 22:19:00,68.9,63.9,30.09,ENE,61,0.0,0.0,84,0.00,,CLR,0.00,0.00,VWS V14.01,2013-08-21 02:19:00,
2013-08-20 22:24:00,68.8,63.8,30.09,ENE,61,0.0,0.0,84,0.00,,CLR,0.00,0.00,VWS V14.01,2013-08-21 02:24:00,
2013-08-20 22:29:00,68.7,64.0,30.09,ENE,61,0.0,0.0,85,0.00,,CLR,0.00,0.00,VWS V14.01,2013-08-21 02:29:00,
2013-08-20 22:34:00,68.6,63.9,30.09,ENE,61,0.0,0.0,85,0.00,,CLR,0.00,0.00,VWS V14.01,2013-08-21 02:34:00,
2013-08-20 22:39:00,68.5,63.8,30.09,ENE,61,0.0,0.0,85,0.00,,CLR,0.00,0.00,VWS V14.01,2013-08-21 02:39:00,
2013-08-20 22:44:00,68.3,63.6,30.09,ENE,61,0.0,0.0,85,0.00,,CLR,0.00,0.00,VWS V14.01,2013-08-21 02:44:00,
2013-08-20 22:49:00,68.1,63.4,30.09,ENE,61,0.0,0.0,85,0.00,,CLR,0.00,0.00,VWS V14.01,2013-08-21 02:49:00,
2013-08-20 22:54:00,67.9,63.6,30.09,ENE,61,0.0,0.0,86,0.00,,CLR,0.00,0.00,VWS V14.01,2013-08-21 02:54:00,
2013-08-20 22:59:00,67.6,63.3,30.08,ENE,61,0.0,0.0,86,0.00,,CLR,0.00,0.00,VWS V14.01,2013-08-21 02:59:00,
2013-08-20 23:04:00,67.4,63.4,30.09,ENE,61,0.0,0.0,87,0.00,,CLR,0.00,0.00,VWS V14.01,2013-08-21 03:04:00,
2013-08-20 23:09:00,67.1,63.1,30.09,ENE,61,0.0,0.0,87,0.00,,CLR,0.00,0.00,VWS V14.01,2013-08-21 03:09:00,
2013-08-20 23:14:00,67.0,63.3,30.08,ENE,61,0.0,0.0,88,0.00,,CLR,0.00,0.00,VWS V14.01,2013-08-21 03:14:00,
2013-08-20 23:19:00,66.8,63.1,30.09,ENE,61,0.0,0.0,88,0.00,,CLR,0.00,0.00,VWS V14.01,2013-08-21 03:19:00,
2013-08-20 23:24:00,66.7,63.4,30.09,ENE,61,0.0,0.0,89,0.00,,CLR,0.00,0.00,VWS V14.01,2013-08-21 03:24:00,
2013-08-20 23:29:00,66.5,63.2,30.09,ENE,61,0.0,0.0,89,0.00,,CLR,0.00,0.00,VWS V14.01,2013-08-21 03:29:00,
2013-08-20 23:34:00,66.4,63.1,30.09,ENE,61,0.0,0.0,89,0.00,,CLR,0.00,0.00,VWS V14.01,2013-08-21 03:34:00,
2013-08-20 23:39:00,66.2,62.9,30.09,ENE,61,0.0,0.0,89,0.00,,CLR,0.00,0.00,VWS V14.01,2013-08-21 03:39:00,
2013-08-20 23:44:00,66.1,62.8,30.09,ENE,61,0.0,0.0,89,0.00,,CLR,0.00,0.00,VWS V14.01,2013-08-21 03:44:00,
2013-08-20 23:49:00,65.9,62.2,30.09,ENE,61,0.0,0.0,88,0.00,,CLR,0.00,0.00,VWS V14.01,2013-08-21 03:49:00,
2013-08-20 23:54:00,65.8,62.5,30.09,ENE,61,0.0,0.0,89,0.00,,CLR,0.00,0.00,VWS V14.01,2013-08-21 03:54:00,
2013-08-20 23:59:00,65.7,62.4,30.09,ENE,61,0.0,0.0,89,0.00,,CLR,0.00,0.00,VWS V14.01,2013-08-21 03:59:00,